FAOL weather

Othawa Airport
Otthawa, Limpopo, South Africa

Public forecast

Using degrees Celsius for public forecast. Weather courtesy of forecast.io.

Closest aviation weather report (METAR) to Othawa Airport

Closest report is Hoedspruit Air Force Base Airport, 29.1 nm (53.9 km) NW. Retrieved 2019/12/15 12:00 UTC (48 minutes ago):

FAHS 151200Z AUTO 34008KT //// // ////// 37/18 Q1009

Closest aviation forecast (TAF) to Othawa Airport

Forecast is more than 12 hours old.

Closest forecast is Hoedspruit Air Force Base Airport, 29.1 nm (53.9 km) NW. Retrieved 2017/05/23 04:01 UTC (3 years ago):

TAF FAHS 230300Z 2304/2315 VRB02KT CAVOK TX29/2312ZTN12/2304Z